Time;durP1;ratioP1;P1;durP2;ratioP2;P2;SDS_P1;SDS_P2;PMS_P1;PMS_P2;Temp;Humidity;BMP_temperature;BMP_pressure;BME280_temperature;BME280_humidity;BME280_pressure;Samples;Min_cycle;Max_cycle;Signal;HPM_P1;HPM_P2
2023/12/08 00:01:16;;;;;;;75.50;19.50;;;1.70;99.90;;;;;;5039473;28;20371;-59
2023/12/08 00:03:42;;;;;;;116.53;25.45;;;1.70;99.90;;;;;;5039563;28;20025;-59
2023/12/08 00:06:08;;;;;;;68.30;18.58;;;1.60;99.90;;;;;;5038985;28;20028;-59
2023/12/08 00:08:34;;;;;;;79.82;20.58;;;1.60;99.90;;;;;;5039395;28;20386;-62
2023/12/08 00:11:00;;;;;;;80.70;18.38;;;1.60;99.90;;;;;;5039158;28;20156;-59
2023/12/08 00:13:26;;;;;;;146.85;27.30;;;1.60;99.90;;;;;;5039533;28;20109;-59
2023/12/08 00:15:51;;;;;;;93.88;22.35;;;1.60;99.90;;;;;;5037951;28;20049;-58
2023/12/08 00:18:17;;;;;;;116.75;25.63;;;1.60;99.90;;;;;;5039483;28;20062;-58
2023/12/08 00:20:42;;;;;;;87.35;23.23;;;1.60;99.90;;;;;;5039356;28;20028;-59
2023/12/08 00:23:08;;;;;;;69.93;21.15;;;1.60;99.90;;;;;;5037213;28;20038;-59
2023/12/08 00:25:33;;;;;;;82.93;22.15;;;1.60;99.90;;;;;;5039155;28;20029;-59
2023/12/08 00:27:59;;;;;;;91.57;23.63;;;1.60;99.90;;;;;;5039069;28;20490;-59
2023/12/08 00:30:25;;;;;;;68.72;20.75;;;1.50;99.90;;;;;;5039295;28;20040;-59
2023/12/08 00:32:50;;;;;;;86.75;23.00;;;1.60;99.90;;;;;;5039053;28;20013;-58
2023/12/08 00:35:16;;;;;;;67.90;19.23;;;1.50;99.90;;;;;;5038654;28;20028;-59
2023/12/08 00:37:41;;;;;;;55.20;16.02;;;1.60;99.90;;;;;;5027217;28;20485;-59
2023/12/08 00:40:08;;;;;;;70.90;21.05;;;1.60;99.90;;;;;;5034368;28;20064;-59
2023/12/08 00:42:34;;;;;;;65.72;19.63;;;1.60;99.90;;;;;;5031935;28;20025;-59
2023/12/08 00:44:59;;;;;;;63.58;19.35;;;1.60;99.90;;;;;;5032850;28;20029;-59
2023/12/08 00:47:25;;;;;;;74.93;19.30;;;1.60;99.90;;;;;;5038760;28;20087;-60
2023/12/08 00:49:50;;;;;;;91.63;22.42;;;1.60;99.90;;;;;;5040869;28;20040;-60
2023/12/08 00:52:16;;;;;;;72.47;19.85;;;1.60;99.90;;;;;;5040844;28;20037;-60
2023/12/08 00:54:41;;;;;;;97.65;22.10;;;1.60;99.90;;;;;;5038875;28;20017;-59
2023/12/08 00:57:07;;;;;;;68.63;21.00;;;1.60;99.90;;;;;;5038750;28;20033;-59
2023/12/08 00:59:32;;;;;;;78.72;21.67;;;1.60;99.90;;;;;;5042881;28;20489;-59
2023/12/08 01:01:58;;;;;;;76.50;22.25;;;1.60;99.90;;;;;;5042906;28;20033;-59
2023/12/08 01:04:23;;;;;;;70.22;21.63;;;1.60;99.90;;;;;;5044848;28;20641;-59
2023/12/08 01:06:48;;;;;;;72.03;19.38;;;1.60;99.90;;;;;;5039056;28;20029;-59
2023/12/08 01:09:14;;;;;;;69.40;22.75;;;1.60;99.90;;;;;;5041502;28;20398;-59
2023/12/08 01:11:40;;;;;;;99.38;28.13;;;1.60;99.90;;;;;;5042694;28;20040;-59
2023/12/08 01:14:05;;;;;;;92.15;26.67;;;1.60;99.90;;;;;;5042882;28;20029;-59
2023/12/08 01:16:31;;;;;;;100.75;28.95;;;1.60;99.90;;;;;;5042701;28;20410;-59
2023/12/08 01:18:56;;;;;;;78.05;22.50;;;1.60;99.90;;;;;;5039857;28;20140;-59
2023/12/08 01:21:22;;;;;;;90.95;24.88;;;1.60;99.90;;;;;;5044509;28;20033;-59
2023/12/08 01:23:47;;;;;;;89.28;23.95;;;1.60;99.90;;;;;;5042116;28;20393;-60
2023/12/08 01:26:13;;;;;;;72.60;25.33;;;1.60;99.90;;;;;;5042341;28;20040;-59
2023/12/08 01:28:38;;;;;;;70.80;22.95;;;1.60;99.90;;;;;;5042511;28;20032;-59
2023/12/08 01:31:04;;;;;;;93.78;25.60;;;1.60;99.90;;;;;;5042530;28;20433;-59
2023/12/08 01:33:30;;;;;;;72.00;22.02;;;1.60;99.90;;;;;;5042532;28;20029;-59
2023/12/08 01:35:55;;;;;;;68.22;22.17;;;1.60;99.90;;;;;;5043888;28;20048;-59
2023/12/08 01:38:21;;;;;;;62.17;19.45;;;1.60;99.90;;;;;;5036954;28;20420;-60
2023/12/08 01:40:46;;;;;;;93.78;24.27;;;1.60;99.90;;;;;;5042180;28;20720;-59
2023/12/08 01:43:12;;;;;;;80.10;21.45;;;1.60;99.90;;;;;;5042172;28;20490;-59
2023/12/08 01:45:39;;;;;;;78.75;21.73;;;1.60;99.90;;;;;;5041633;28;20021;-59
2023/12/08 01:48:05;;;;;;;54.90;19.52;;;1.50;99.90;;;;;;5042248;28;20538;-59
2023/12/08 01:50:32;;;;;;;45.17;15.95;;;1.50;99.90;;;;;;5042166;28;20107;-59
2023/12/08 01:52:59;;;;;;;55.35;17.20;;;1.50;99.90;;;;;;5042109;28;20032;-59
2023/12/08 01:55:25;;;;;;;83.15;21.17;;;1.60;99.90;;;;;;5042009;28;20086;-59
2023/12/08 01:57:50;;;;;;;81.80;23.75;;;1.60;99.90;;;;;;5041660;28;20124;-59
2023/12/08 02:00:16;;;;;;;85.45;21.98;;;1.60;99.90;;;;;;5041653;28;20394;-59
2023/12/08 02:02:43;;;;;;;79.15;22.33;;;1.60;99.90;;;;;;5036247;28;20025;-59
2023/12/08 02:05:09;;;;;;;70.93;21.52;;;1.60;99.90;;;;;;5039440;28;20013;-59
2023/12/08 02:07:35;;;;;;;69.38;18.88;;;1.60;99.90;;;;;;5031793;28;20116;-59
2023/12/08 02:10:02;;;;;;;78.30;21.25;;;1.60;99.90;;;;;;5040723;28;20037;-59
2023/12/08 02:12:28;;;;;;;62.53;18.63;;;1.60;99.90;;;;;;5040088;28;20050;-59
2023/12/08 02:14:54;;;;;;;75.32;19.90;;;1.60;99.90;;;;;;5037503;28;20116;-59
2023/12/08 02:17:30;;;;;;;76.95;19.27;;;1.60;99.90;;;;;;5036113;28;20102;-59
2023/12/08 02:19:56;;;;;;;83.07;23.42;;;1.60;99.90;;;;;;5036062;28;20518;-59
2023/12/08 02:22:23;;;;;;;76.63;20.70;;;1.60;99.90;;;;;;5033405;28;20112;-59
2023/12/08 02:24:49;;;;;;;81.30;22.65;;;1.60;99.90;;;;;;5035878;28;20073;-59
2023/12/08 02:27:15;;;;;;;69.25;21.20;;;1.70;99.90;;;;;;5034689;28;20712;-59
2023/12/08 02:29:41;;;;;;;69.60;20.63;;;1.60;99.90;;;;;;5032939;28;20495;-58
2023/12/08 02:32:10;;;;;;;76.25;22.13;;;1.60;99.90;;;;;;5038961;28;20032;-59
2023/12/08 02:34:38;;;;;;;85.28;23.80;;;1.70;99.90;;;;;;5034237;28;20076;-59
2023/12/08 02:37:06;;;;;;;64.03;21.05;;;1.70;99.90;;;;;;5037666;28;20033;-59
2023/12/08 02:39:33;;;;;;;89.60;23.73;;;1.70;99.90;;;;;;5041134;28;20029;-60
2023/12/08 02:42:01;;;;;;;66.80;20.90;;;1.70;99.90;;;;;;5039426;28;20478;-59
2023/12/08 02:44:27;;;;;;;85.75;23.70;;;1.70;99.90;;;;;;5040998;28;20028;-60
2023/12/08 02:46:52;;;;;;;77.15;22.77;;;1.70;99.90;;;;;;5040888;28;20029;-59
2023/12/08 02:49:17;;;;;;;81.85;25.17;;;1.70;99.90;;;;;;5040849;28;20029;-59
2023/12/08 02:51:43;;;;;;;61.33;20.70;;;1.70;99.90;;;;;;5042448;28;20029;-59
2023/12/08 02:54:08;;;;;;;85.65;26.10;;;1.70;99.90;;;;;;5040902;28;20051;-59
2023/12/08 02:56:34;;;;;;;101.20;27.15;;;1.70;99.90;;;;;;5040554;28;20087;-59
2023/12/08 02:58:59;;;;;;;70.90;20.52;;;1.70;99.90;;;;;;5040648;28;20062;-60
2023/12/08 03:01:25;;;;;;;80.40;24.17;;;1.70;99.90;;;;;;5040719;28;20014;-58
2023/12/08 03:03:50;;;;;;;80.68;25.05;;;1.70;99.90;;;;;;5036559;28;20406;-59
2023/12/08 03:06:16;;;;;;;138.55;31.63;;;1.70;99.90;;;;;;5042464;28;20056;-60
2023/12/08 03:08:42;;;;;;;92.00;26.65;;;1.70;99.90;;;;;;5039559;28;20029;-59
2023/12/08 03:11:07;;;;;;;88.30;22.13;;;1.70;99.90;;;;;;5040413;28;20086;-58
2023/12/08 03:13:33;;;;;;;82.97;25.30;;;1.70;99.90;;;;;;5040402;28;20479;-59
2023/12/08 03:15:58;;;;;;;83.90;24.00;;;1.80;99.90;;;;;;5040396;28;20090;-59
2023/12/08 03:18:24;;;;;;;75.47;20.35;;;1.70;99.90;;;;;;5042362;28;20029;-59
2023/12/08 03:20:49;;;;;;;90.80;24.60;;;1.70;99.90;;;;;;5040044;28;20040;-59
2023/12/08 03:23:15;;;;;;;82.75;25.25;;;1.70;99.90;;;;;;5039081;28;20021;-59
2023/12/08 03:25:40;;;;;;;95.97;27.73;;;1.70;99.90;;;;;;5040017;28;20029;-60
2023/12/08 03:28:06;;;;;;;91.82;27.05;;;1.70;99.90;;;;;;5040146;28;20025;-59
2023/12/08 03:30:31;;;;;;;88.07;24.58;;;1.80;99.90;;;;;;5039986;28;20040;-59
2023/12/08 03:32:57;;;;;;;85.63;24.60;;;1.70;99.90;;;;;;5042042;28;20391;-59
2023/12/08 03:35:22;;;;;;;81.28;23.50;;;1.70;99.90;;;;;;5040160;28;20024;-63
2023/12/08 03:37:48;;;;;;;101.43;30.75;;;1.70;99.90;;;;;;5036917;28;20090;-60
2023/12/08 03:40:13;;;;;;;89.35;25.13;;;1.70;99.90;;;;;;5040046;28;20367;-62
2023/12/08 03:42:39;;;;;;;84.07;26.70;;;1.70;99.90;;;;;;5040167;28;20248;-60
2023/12/08 03:45:05;;;;;;;79.60;26.15;;;1.80;99.90;;;;;;5035750;28;20466;-61
2023/12/08 03:47:30;;;;;;;82.13;27.40;;;1.70;99.90;;;;;;5041557;28;20116;-63
2023/12/08 03:49:56;;;;;;;77.10;24.20;;;1.80;99.90;;;;;;5039872;28;20449;-63
2023/12/08 03:52:21;;;;;;;81.85;25.73;;;1.70;99.90;;;;;;5039796;28;20104;-63
2023/12/08 03:54:47;;;;;;;72.65;23.23;;;1.80;99.90;;;;;;5039626;28;20037;-63
2023/12/08 03:57:12;;;;;;;84.75;27.67;;;1.80;99.90;;;;;;5039637;28;20091;-63
2023/12/08 03:59:37;;;;;;;64.05;23.00;;;1.80;99.90;;;;;;5039594;28;20053;-62
2023/12/08 04:02:03;;;;;;;70.28;24.67;;;1.80;99.90;;;;;;5041375;28;20036;-63
2023/12/08 04:04:29;;;;;;;62.83;22.35;;;1.80;99.90;;;;;;5039601;28;20029;-63
2023/12/08 04:06:56;;;;;;;67.57;24.63;;;1.80;99.90;;;;;;5035559;28;20547;-64
2023/12/08 04:09:21;;;;;;;60.38;23.00;;;1.80;99.90;;;;;;5035965;28;20028;-63
2023/12/08 04:11:47;;;;;;;67.65;24.92;;;1.80;99.90;;;;;;5037374;28;20033;-64
2023/12/08 04:14:12;;;;;;;56.13;23.67;;;1.80;99.90;;;;;;5039508;28;20052;-64
2023/12/08 04:16:38;;;;;;;60.20;23.25;;;1.80;99.90;;;;;;5039334;28;20036;-63
2023/12/08 04:19:03;;;;;;;69.22;27.42;;;1.80;99.90;;;;;;5041206;28;20390;-64
2023/12/08 04:21:29;;;;;;;61.97;23.52;;;1.80;99.90;;;;;;5039384;28;20104;-64
2023/12/08 04:23:54;;;;;;;57.72;21.05;;;1.80;99.90;;;;;;5039250;28;20052;-63
2023/12/08 04:26:24;;;;;;;61.58;23.40;;;1.80;99.90;;;;;;5039122;28;20025;-63
2023/12/08 04:28:53;;;;;;;59.63;21.45;;;1.80;99.90;;;;;;5039188;28;20028;-64
2023/12/08 04:31:19;;;;;;;60.80;23.88;;;1.80;99.90;;;;;;5037457;28;20678;-64
2023/12/08 04:33:45;;;;;;;58.33;23.08;;;1.80;99.90;;;;;;5039215;28;20017;-63
2023/12/08 04:36:10;;;;;;;80.30;29.27;;;1.80;99.90;;;;;;5035982;28;20029;-61
2023/12/08 04:38:36;;;;;;;79.25;27.23;;;1.80;99.90;;;;;;5041125;28;20024;-63
2023/12/08 04:41:01;;;;;;;78.15;28.00;;;1.80;99.90;;;;;;5039332;28;20395;-63
2023/12/08 04:43:27;;;;;;;82.00;30.67;;;1.80;99.90;;;;;;5035146;28;20033;-62
2023/12/08 04:45:52;;;;;;;67.60;25.67;;;1.80;99.90;;;;;;5034752;28;20021;-63
2023/12/08 04:48:17;;;;;;;71.28;26.30;;;1.80;99.90;;;;;;5033345;28;20566;-62
2023/12/08 04:50:43;;;;;;;76.68;28.35;;;1.80;99.90;;;;;;5040907;28;20025;-61
2023/12/08 04:53:08;;;;;;;84.68;29.88;;;1.80;99.90;;;;;;5037661;28;20482;-62
2023/12/08 04:55:35;;;;;;;63.65;25.60;;;1.80;99.90;;;;;;5038867;28;20075;-62
2023/12/08 04:58:01;;;;;;;64.85;25.08;;;1.80;99.90;;;;;;5038766;28;20029;-62
2023/12/08 05:00:26;;;;;;;67.72;27.55;;;1.70;99.90;;;;;;5036884;28;20025;-62
2023/12/08 05:02:52;;;;;;;83.70;32.10;;;1.80;99.90;;;;;;5037415;28;20028;-62
2023/12/08 05:05:17;;;;;;;78.95;29.35;;;1.80;99.90;;;;;;5040731;28;20031;-63
2023/12/08 05:07:43;;;;;;;71.70;28.27;;;1.80;99.90;;;;;;5038899;28;20089;-62
2023/12/08 05:10:08;;;;;;;66.63;25.67;;;1.70;99.90;;;;;;5038746;28;20113;-62
2023/12/08 05:12:34;;;;;;;61.47;26.00;;;1.80;99.90;;;;;;5038894;28;20044;-63
2023/12/08 05:14:59;;;;;;;82.30;30.98;;;1.80;99.90;;;;;;5033172;28;20468;-64
2023/12/08 05:17:25;;;;;;;71.15;27.88;;;1.80;99.90;;;;;;5031482;28;20240;-64
2023/12/08 05:19:50;;;;;;;83.90;31.02;;;1.80;99.90;;;;;;5039222;28;20021;-64
2023/12/08 05:22:16;;;;;;;83.45;32.35;;;1.70;99.90;;;;;;5037834;28;20116;-63
2023/12/08 05:24:41;;;;;;;87.45;30.30;;;1.80;99.90;;;;;;5036686;28;20521;-63
2023/12/08 05:27:06;;;;;;;77.20;29.80;;;1.80;99.90;;;;;;5033034;28;20074;-64
2023/12/08 05:29:32;;;;;;;81.03;32.53;;;1.80;99.90;;;;;;5036296;28;20439;-65
2023/12/08 05:31:57;;;;;;;77.60;29.88;;;1.80;99.90;;;;;;5037539;28;20052;-63
2023/12/08 05:34:23;;;;;;;66.28;28.30;;;1.80;99.90;;;;;;5040491;28;20520;-63
2023/12/08 05:36:48;;;;;;;83.97;32.20;;;1.80;99.90;;;;;;5033082;28;20025;-63
2023/12/08 05:39:14;;;;;;;84.78;33.42;;;1.80;99.90;;;;;;5038536;28;20029;-63
2023/12/08 05:41:40;;;;;;;78.65;31.83;;;1.80;99.90;;;;;;5038516;28;20057;-64
2023/12/08 05:44:05;;;;;;;77.38;30.55;;;1.80;99.90;;;;;;5040321;28;20102;-63
2023/12/08 05:46:31;;;;;;;79.05;32.50;;;1.80;99.90;;;;;;5042283;28;20112;-63
2023/12/08 05:48:57;;;;;;;76.88;31.83;;;1.80;99.90;;;;;;5043054;28;20017;-64
2023/12/08 05:51:23;;;;;;;73.60;29.70;;;1.80;99.90;;;;;;5040747;28;20138;-64
2023/12/08 05:53:48;;;;;;;84.97;35.97;;;1.80;99.90;;;;;;5038436;28;20112;-64
2023/12/08 05:56:14;;;;;;;77.25;32.33;;;1.80;99.90;;;;;;5040642;28;20035;-63
2023/12/08 05:58:39;;;;;;;75.25;31.75;;;1.80;99.90;;;;;;5033197;28;20087;-63
2023/12/08 06:01:05;;;;;;;80.25;33.75;;;1.80;99.90;;;;;;5042778;28;20028;-64
2023/12/08 06:03:31;;;;;;;73.72;32.70;;;1.80;99.90;;;;;;5038446;28;20205;-64
2023/12/08 06:05:56;;;;;;;70.00;28.98;;;1.80;99.90;;;;;;5041773;28;20037;-64
2023/12/08 06:08:22;;;;;;;60.35;23.02;;;1.70;99.90;;;;;;5040502;28;20013;-63
2023/12/08 06:10:47;;;;;;;61.88;26.00;;;1.70;99.90;;;;;;5041446;28;20041;-63
2023/12/08 06:13:13;;;;;;;57.00;26.95;;;1.70;99.90;;;;;;5033676;28;20029;-63
2023/12/08 06:15:39;;;;;;;55.83;24.27;;;1.60;99.90;;;;;;5043631;28;20086;-63
2023/12/08 06:18:04;;;;;;;64.30;27.65;;;1.60;99.90;;;;;;5041725;28;20028;-63
2023/12/08 06:20:30;;;;;;;61.55;25.20;;;1.50;99.90;;;;;;5040165;28;20036;-64
2023/12/08 06:22:55;;;;;;;71.07;29.25;;;1.40;99.90;;;;;;5040207;28;20505;-63
2023/12/08 06:25:21;;;;;;;80.80;32.45;;;1.30;99.90;;;;;;5037939;28;20057;-65
2023/12/08 06:27:46;;;;;;;91.82;37.35;;;1.20;99.90;;;;;;5041764;28;20025;-64
2023/12/08 06:30:12;;;;;;;94.90;36.85;;;1.30;99.90;;;;;;5041658;28;20040;-64
2023/12/08 06:32:38;;;;;;;97.78;36.72;;;1.30;99.90;;;;;;5035615;28;20029;-65
2023/12/08 06:35:04;;;;;;;96.32;38.58;;;1.30;99.90;;;;;;5032467;28;20036;-64
2023/12/08 06:37:30;;;;;;;91.20;37.05;;;1.40;99.90;;;;;;5032091;28;20040;-64
2023/12/08 06:39:55;;;;;;;84.50;35.83;;;1.40;99.90;;;;;;5041087;28;20100;-64
2023/12/08 06:42:21;;;;;;;93.97;36.28;;;1.40;99.90;;;;;;5041285;28;20033;-64
2023/12/08 06:44:47;;;;;;;81.18;33.17;;;1.40;99.90;;;;;;5041054;28;20067;-61
2023/12/08 06:47:13;;;;;;;86.90;35.58;;;1.40;99.90;;;;;;5042624;28;20068;-62
2023/12/08 06:49:38;;;;;;;86.97;35.83;;;1.40;99.90;;;;;;5040397;28;20029;-63
2023/12/08 06:52:04;;;;;;;94.00;37.13;;;1.40;99.90;;;;;;5039990;28;20438;-62
2023/12/08 06:54:30;;;;;;;82.88;34.95;;;1.40;99.90;;;;;;5040405;28;20589;-62
2023/12/08 06:56:56;;;;;;;75.00;32.40;;;1.30;99.90;;;;;;5040446;28;20395;-62
2023/12/08 06:59:21;;;;;;;86.97;35.85;;;1.40;99.90;;;;;;5032342;28;20162;-61
2023/12/08 07:01:47;;;;;;;76.88;34.83;;;1.40;99.90;;;;;;5034361;28;20026;-61
2023/12/08 07:04:14;;;;;;;80.30;35.65;;;1.40;99.90;;;;;;5036244;28;20035;-63
2023/12/08 07:06:39;;;;;;;75.95;35.97;;;1.40;99.90;;;;;;5040489;28;20501;-63
2023/12/08 07:09:06;;;;;;;87.32;38.75;;;1.40;99.90;;;;;;5040270;28;20598;-61
2023/12/08 07:11:32;;;;;;;77.30;34.30;;;1.40;99.90;;;;;;5040073;28;20033;-62
2023/12/08 07:13:58;;;;;;;82.70;35.92;;;1.40;99.90;;;;;;5040210;28;20017;-61
2023/12/08 07:16:23;;;;;;;80.57;34.83;;;1.40;99.90;;;;;;5041982;28;20021;-62
2023/12/08 07:18:49;;;;;;;69.95;32.30;;;1.40;99.90;;;;;;5040085;28;20025;-61
2023/12/08 07:21:15;;;;;;;66.93;33.00;;;1.40;99.90;;;;;;5040027;28;20037;-61
2023/12/08 07:23:42;;;;;;;69.75;29.27;;;1.30;99.90;;;;;;5040230;28;20482;-62
2023/12/08 07:26:09;;;;;;;69.22;30.63;;;1.30;99.90;;;;;;5040020;28;20053;-61
2023/12/08 07:28:34;;;;;;;60.17;29.15;;;1.30;99.90;;;;;;5035786;28;20029;-63
2023/12/08 07:31:00;;;;;;;75.95;32.38;;;1.20;99.90;;;;;;5032912;28;20121;-61
2023/12/08 07:33:25;;;;;;;65.13;30.83;;;1.20;99.90;;;;;;5033556;28;20432;-62
2023/12/08 07:35:51;;;;;;;61.58;27.88;;;1.10;99.90;;;;;;5027114;28;20126;-57
2023/12/08 07:38:18;;;;;;;61.05;28.90;;;1.10;99.90;;;;;;5029780;28;20154;-58
2023/12/08 07:40:43;;;;;;;61.78;28.35;;;1.10;99.90;;;;;;5035599;28;20034;-57
2023/12/08 07:43:09;;;;;;;57.67;26.73;;;1.00;99.90;;;;;;5034261;28;20028;-58
2023/12/08 07:45:34;;;;;;;60.13;29.27;;;1.00;99.90;;;;;;5033064;28;20036;-60
2023/12/08 07:47:59;;;;;;;53.45;26.05;;;0.90;99.90;;;;;;5032318;28;20025;-60
2023/12/08 07:50:26;;;;;;;58.70;28.02;;;0.90;99.90;;;;;;5032605;28;20041;-60
2023/12/08 07:52:54;;;;;;;57.63;28.23;;;0.90;99.90;;;;;;5034245;28;20017;-60
2023/12/08 07:55:19;;;;;;;56.55;27.90;;;1.00;99.90;;;;;;5035334;28;20700;-60
2023/12/08 07:57:46;;;;;;;60.35;29.17;;;1.00;99.90;;;;;;5039118;28;20116;-60
2023/12/08 08:00:12;;;;;;;57.53;27.67;;;1.00;99.90;;;;;;5039429;28;20017;-60
2023/12/08 08:02:37;;;;;;;54.25;26.52;;;0.90;99.90;;;;;;5039383;28;20398;-60
2023/12/08 08:05:04;;;;;;;52.35;25.90;;;0.90;99.90;;;;;;5041087;28;20021;-60
2023/12/08 08:07:31;;;;;;;54.65;26.63;;;0.90;99.90;;;;;;5034202;28;20053;-61
2023/12/08 08:09:57;;;;;;;55.05;27.27;;;0.90;99.90;;;;;;5039095;28;20040;-61
2023/12/08 08:12:22;;;;;;;49.80;24.63;;;0.90;99.90;;;;;;5039129;28;20060;-60
2023/12/08 08:14:48;;;;;;;50.90;25.42;;;0.90;99.90;;;;;;5039040;28;20039;-60
2023/12/08 08:17:13;;;;;;;52.50;27.02;;;0.90;99.90;;;;;;5039184;28;20465;-60
2023/12/08 08:19:41;;;;;;;55.28;27.27;;;0.90;99.90;;;;;;5041038;28;20037;-60
2023/12/08 08:22:06;;;;;;;58.42;28.45;;;0.90;99.90;;;;;;5036693;28;20028;-60
2023/12/08 08:24:31;;;;;;;58.60;26.98;;;0.90;99.90;;;;;;5030272;28;20576;-60
2023/12/08 08:26:57;;;;;;;53.05;27.77;;;0.90;99.90;;;;;;5033130;28;20017;-60
2023/12/08 08:29:22;;;;;;;55.35;27.67;;;0.90;99.90;;;;;;5032458;28;20091;-60
2023/12/08 08:31:48;;;;;;;56.65;26.98;;;0.90;99.90;;;;;;5030549;28;20029;-60
2023/12/08 08:34:13;;;;;;;63.65;30.27;;;0.90;99.90;;;;;;5035370;28;20017;-61
2023/12/08 08:36:39;;;;;;;55.00;26.35;;;1.00;99.90;;;;;;5028960;28;20029;-60
2023/12/08 08:39:04;;;;;;;58.80;29.67;;;1.10;99.90;;;;;;5038701;28;20032;-60
2023/12/08 08:41:30;;;;;;;56.72;28.02;;;1.10;99.90;;;;;;5036772;28;20062;-60
2023/12/08 08:43:56;;;;;;;54.80;25.40;;;1.10;99.90;;;;;;5029682;28;20106;-61
2023/12/08 08:46:21;;;;;;;59.90;29.60;;;1.20;99.90;;;;;;5035440;28;20033;-62
2023/12/08 08:48:47;;;;;;;55.42;27.17;;;1.20;99.90;;;;;;5038659;28;20025;-60
2023/12/08 08:51:14;;;;;;;59.00;28.90;;;1.20;99.90;;;;;;5039116;28;20546;-61
2023/12/08 08:53:39;;;;;;;64.93;31.35;;;1.20;99.90;;;;;;5039257;28;20980;-61
2023/12/08 08:56:05;;;;;;;69.45;30.38;;;1.20;99.90;;;;;;5038647;28;20120;-61
2023/12/08 08:58:32;;;;;;;59.60;28.58;;;1.20;99.90;;;;;;5039190;28;20021;-61
2023/12/08 09:00:57;;;;;;;62.85;29.25;;;1.20;99.90;;;;;;5034887;28;20359;-60
2023/12/08 09:03:23;;;;;;;58.55;27.88;;;1.20;99.90;;;;;;5040842;28;20028;-61
2023/12/08 09:05:48;;;;;;;58.63;28.67;;;1.20;99.90;;;;;;5039244;28;20135;-62
2023/12/08 09:08:14;;;;;;;58.20;27.83;;;1.20;99.90;;;;;;5038924;28;20441;-61
2023/12/08 09:10:44;;;;;;;49.22;25.95;;;1.30;99.90;;;;;;5039006;28;20071;-61
2023/12/08 09:13:09;;;;;;;51.17;25.30;;;1.20;99.90;;;;;;5039170;28;20021;-60
2023/12/08 09:15:35;;;;;;;53.13;26.08;;;1.30;99.90;;;;;;5038920;28;20853;-62
2023/12/08 09:18:00;;;;;;;51.28;26.48;;;1.30;99.90;;;;;;5038737;28;20025;-60
2023/12/08 09:20:26;;;;;;;49.80;22.98;;;1.30;99.90;;;;;;5043832;28;20455;-61
2023/12/08 09:22:51;;;;;;;44.75;22.90;;;1.30;99.90;;;;;;5037813;28;20036;-61
2023/12/08 09:25:21;;;;;;;50.05;25.20;;;1.30;99.90;;;;;;5035895;28;20021;-61
2023/12/08 09:27:47;;;;;;;49.92;26.10;;;1.30;99.90;;;;;;5037191;28;20029;-60
2023/12/08 09:30:12;;;;;;;44.03;22.00;;;1.40;99.90;;;;;;5040131;28;20091;-61
2023/12/08 09:32:40;;;;;;;42.92;21.98;;;1.40;99.90;;;;;;5040344;28;20029;-60
2023/12/08 09:35:06;;;;;;;42.38;21.20;;;1.40;99.90;;;;;;5040269;28;20021;-61
2023/12/08 09:37:32;;;;;;;38.97;21.42;;;1.30;99.90;;;;;;5032256;28;20482;-62
2023/12/08 09:39:57;;;;;;;38.83;19.73;;;1.40;99.90;;;;;;5033942;28;20055;-56
2023/12/08 09:42:36;;;;;;;41.88;19.88;;;1.40;99.90;;;;;;5038973;28;20040;-64
2023/12/08 09:45:04;;;;;;;36.13;19.33;;;1.40;99.90;;;;;;5037752;28;20024;-64
2023/12/08 09:47:35;;;;;;;34.05;18.00;;;1.40;99.90;;;;;;5038644;28;20514;-64
2023/12/08 09:50:05;;;;;;;40.17;20.60;;;1.40;99.90;;;;;;5037370;28;20025;-64
2023/12/08 09:52:33;;;;;;;38.63;21.95;;;1.50;99.90;;;;;;5037868;28;20040;-64
2023/12/08 09:54:58;;;;;;;39.42;21.52;;;1.60;99.90;;;;;;5038511;28;20402;-65
2023/12/08 09:57:24;;;;;;;37.90;19.60;;;1.60;99.90;;;;;;5035515;28;20045;-64
2023/12/08 09:59:51;;;;;;;40.05;20.45;;;1.50;99.90;;;;;;5035536;28;20063;-63
2023/12/08 10:02:18;;;;;;;43.15;22.45;;;1.50;99.90;;;;;;5034379;28;20025;-64
2023/12/08 10:04:43;;;;;;;42.25;22.10;;;1.50;99.90;;;;;;5039636;28;20048;-63
2023/12/08 10:07:10;;;;;;;42.95;22.17;;;1.60;99.90;;;;;;5041436;28;20059;-65
2023/12/08 10:09:36;;;;;;;42.45;23.50;;;1.60;99.90;;;;;;5037964;28;20083;-65
2023/12/08 10:12:02;;;;;;;40.85;21.48;;;1.60;99.90;;;;;;5039776;28;20032;-66
2023/12/08 10:14:27;;;;;;;41.67;22.38;;;1.60;99.90;;;;;;5037245;28;20037;-64
2023/12/08 10:16:53;;;;;;;48.53;24.27;;;1.70;99.90;;;;;;5037735;28;20033;-64
2023/12/08 10:19:21;;;;;;;45.00;22.88;;;1.60;99.90;;;;;;5039078;28;20040;-64
2023/12/08 10:21:59;;;;;;;46.75;22.48;;;1.70;99.90;;;;;;5035388;28;20047;-64
2023/12/08 10:24:30;;;;;;;44.65;23.63;;;1.70;99.90;;;;;;5039054;28;20054;-66
2023/12/08 10:27:00;;;;;;;46.30;21.80;;;1.70;99.90;;;;;;5037484;28;20557;-68
2023/12/08 10:29:30;;;;;;;44.22;23.30;;;1.70;99.90;;;;;;5032340;28;20025;-65
2023/12/08 10:31:57;;;;;;;43.03;22.50;;;1.70;99.90;;;;;;5039168;28;20032;-65
2023/12/08 10:34:23;;;;;;;44.67;22.88;;;1.70;99.90;;;;;;5030366;28;20028;-65
2023/12/08 10:36:49;;;;;;;44.70;23.77;;;1.70;99.90;;;;;;5032834;28;20036;-65
2023/12/08 10:39:16;;;;;;;44.00;22.15;;;1.70;99.90;;;;;;5041087;28;20025;-65
2023/12/08 10:41:41;;;;;;;46.17;23.55;;;1.70;99.90;;;;;;5037397;28;20025;-65
2023/12/08 10:44:08;;;;;;;45.15;22.75;;;1.70;99.90;;;;;;5031953;28;20028;-65
2023/12/08 10:46:35;;;;;;;47.92;24.52;;;1.60;99.90;;;;;;5034301;28;20082;-65
2023/12/08 10:49:01;;;;;;;43.50;22.83;;;1.70;99.90;;;;;;5038531;28;20398;-65
2023/12/08 10:51:28;;;;;;;42.47;20.95;;;1.70;99.90;;;;;;5036994;28;20025;-64
2023/12/08 10:53:55;;;;;;;50.25;23.75;;;1.70;99.90;;;;;;5038840;28;20039;-64
2023/12/08 10:56:21;;;;;;;42.05;22.17;;;1.70;99.90;;;;;;5035843;28;20045;-63
2023/12/08 10:59:01;;;;;;;44.17;23.83;;;1.80;99.90;;;;;;5035381;28;20033;-64
2023/12/08 11:01:32;;;;;;;39.58;21.13;;;1.80;99.90;;;;;;5031217;28;20036;-66
2023/12/08 11:04:02;;;;;;;43.78;22.67;;;1.80;99.90;;;;;;5034262;28;20021;-66
2023/12/08 11:06:32;;;;;;;36.85;19.33;;;1.80;99.90;;;;;;5038651;28;20044;-65
2023/12/08 11:09:01;;;;;;;39.35;20.70;;;1.80;99.90;;;;;;5037595;28;20545;-65
2023/12/08 11:11:28;;;;;;;40.33;20.48;;;1.80;99.90;;;;;;5038217;28;20029;-64
2023/12/08 11:14:05;;;;;;;46.13;22.20;;;1.90;99.90;;;;;;5039848;28;20045;-65
2023/12/08 11:16:37;;;;;;;43.47;23.70;;;1.90;99.90;;;;;;5034144;28;20397;-64
2023/12/08 11:19:04;;;;;;;44.75;22.05;;;1.90;99.90;;;;;;5032145;28;20029;-66
2023/12/08 11:21:31;;;;;;;45.47;24.13;;;1.90;99.90;;;;;;5037152;28;20517;-65
2023/12/08 11:23:57;;;;;;;46.97;24.30;;;1.90;99.90;;;;;;5038013;28;20021;-65
2023/12/08 11:26:42;;;;;;;45.85;22.23;;;2.00;99.90;;;;;;5039775;28;20025;-66
2023/12/08 11:29:32;;;;;;;43.50;22.25;;;2.00;99.90;;;;;;5034845;28;20052;-66
2023/12/08 11:32:32;;;;;;;43.63;22.00;;;2.00;99.90;;;;;;5035731;28;20029;-66
2023/12/08 11:35:04;;;;;;;41.05;23.10;;;2.00;99.90;;;;;;5025025;28;20044;-65
2023/12/08 11:37:32;;;;;;;46.55;24.48;;;2.00;99.90;;;;;;5034005;28;20039;-65
2023/12/08 11:40:07;;;;;;;38.72;21.60;;;2.00;99.90;;;;;;5036026;28;20029;-65
2023/12/08 11:42:33;;;;;;;45.22;22.48;;;2.00;99.90;;;;;;5033951;28;20128;-65
2023/12/08 11:44:59;;;;;;;45.67;23.70;;;2.00;99.90;;;;;;5037773;28;20029;-65
2023/12/08 11:47:26;;;;;;;46.45;24.65;;;2.00;99.90;;;;;;5036902;28;20017;-59
2023/12/08 11:49:53;;;;;;;43.97;23.35;;;2.00;99.90;;;;;;5033538;28;20036;-60
2023/12/08 11:52:20;;;;;;;42.25;22.77;;;1.90;99.90;;;;;;5037082;28;20033;-60
2023/12/08 11:55:12;;;;;;;40.50;21.75;;;1.90;99.90;;;;;;5036094;28;20098;-60
2023/12/08 11:57:59;;;;;;;47.22;22.83;;;1.90;99.90;;;;;;5033464;28;20132;-60
2023/12/08 12:00:26;;;;;;;39.55;19.75;;;2.00;99.90;;;;;;5032534;28;20348;-60
2023/12/08 12:02:52;;;;;;;42.33;21.15;;;2.00;99.90;;;;;;5029640;28;20034;-60
2023/12/08 12:05:18;;;;;;;41.13;22.02;;;1.90;99.90;;;;;;5031080;28;20025;-60
2023/12/08 12:07:47;;;;;;;43.97;21.50;;;2.00;99.90;;;;;;5029158;28;20112;-60
2023/12/08 12:10:13;;;;;;;41.72;20.45;;;2.00;99.90;;;;;;5032980;28;20060;-59
2023/12/08 12:12:49;;;;;;;45.03;23.55;;;2.00;99.90;;;;;;5037782;28;20028;-60
2023/12/08 12:15:18;;;;;;;43.22;23.58;;;1.90;99.90;;;;;;5037114;28;20611;-60
2023/12/08 12:17:44;;;;;;;40.60;21.42;;;1.90;99.90;;;;;;5031313;28;20025;-59
2023/12/08 12:20:11;;;;;;;40.58;21.25;;;1.90;99.90;;;;;;5033189;28;20029;-60
2023/12/08 12:22:39;;;;;;;41.20;21.52;;;1.90;99.90;;;;;;5034554;28;20028;-61
2023/12/08 12:25:08;;;;;;;44.15;22.35;;;1.80;99.90;;;;;;5037073;28;20060;-59
2023/12/08 12:27:41;;;;;;;37.58;21.13;;;1.80;99.90;;;;;;5033381;28;20112;-60
2023/12/08 12:30:10;;;;;;;47.97;21.98;;;1.90;99.90;;;;;;5028460;28;20490;-60
2023/12/08 12:32:36;;;;;;;43.78;23.08;;;1.80;99.90;;;;;;5030049;28;20516;-60